NIEUW!!! Volg onze weer- en natuurfoto's op Instagram @ weerstationmaaseik.be

WS Maaseik 1 Meer informatie WS Maaseik 1


WS Maaseik 2 Meer informatie WS Maaseik 2


Regen radar Meer informatie rain snow radar


Bezoek onze andere website:

Vorige versie
weerstation Maaseik


Bezoek ook eens deze sites:

Weerstation Geleen



Het weer levert geen direct gevaar op.    Er zijn geen waarschuwingen afgegeven.

METAR rapporten vliegvelden

   
EBBR - Brussels International Airport, Belgium
Afstand tot: W 14 km
Gewijzigd: 28-01-2020 23:50
Grotendeels bewolkt  
Grotendeels bewolkt  
   Wind: WZW 25.9 km/h
Wind: WZW 25.9 km/h
Temperatuur: 4°C
Voelt als: -1°C
Dauwpunt: 1°C
Vochtigheid: 81%
Barometer: 1001 hPa
Bewolking: Mostly Cloudy
Zicht: meer dan 10 km
Bewolking: Licht bewolkt 1100 ft,
Grotendeels bewolkt 3500 ft
EBBR 282250Z 25014KT 9999 FEW011 BKN035 04/01 Q1001 NOSIG
EBBE - Beauvechain (Bevekom), Belgium
Afstand tot: ZZO 17 km
Gewijzigd: 28-01-2020 23:55
Grotendeels bewolkt  
Grotendeels bewolkt  
   Wind: WZW 22.2 km/h
Wind: WZW 22.2 km/h
Temperatuur: 3°C
Voelt als: -2°C
Dauwpunt: 2°C
Vochtigheid: 93%
Barometer: 1001 hPa
Bewolking: Mostly Cloudy
Zicht: meer dan 10 km
Bewolking: Grotendeels bewolkt 3000 ft,
Grotendeels bewolkt 3700 ft
EBBE 282255Z AUTO 24012KT 9999 BKN030/// BKN037/// 03/02 Q1001 BLU
EBDT - Schaffen, Belgium
Afstand tot: ONO 29 km
Gewijzigd: 28-01-2020 23:55
Grotendeels bewolkt  
Grotendeels bewolkt  
   Wind: WZW 16.7 km/h
Wind: WZW 16.7 km/h
Temperatuur: 3°C
Voelt als: -1°C
Dauwpunt: 1°C
Vochtigheid: 87%
Barometer: 1001 hPa
Bewolking: Mostly Cloudy
Zicht: meer dan 10 km
Bewolking: Licht bewolkt 2500 ft,
Grotendeels bewolkt 4600 ft,
Grotendeels bewolkt 7500 ft
EBDT 282255Z AUTO 24009KT 9999 FEW025/// BKN046/// BKN075/// 03/01 Q1001 BLU
EBAW - Antwerp/Deurne, Belgium
Afstand tot: NNW 38 km
Gewijzigd: 28-01-2020 23:50
Helder  
Helder  
   Wind: WZW 18.5 km/h
Wind: WZW 18.5 km/h
Temperatuur: 4°C
Voelt als: 0°C
Dauwpunt: 2°C
Vochtigheid: 87%
Barometer: 1001 hPa
Zicht: meer dan 10 km
Bewolking: Helder ft
EBAW 282250Z AUTO 24010KT CAVOK 04/02 Q1001
EBCI - Charleroi/Gosselies, Belgium
Afstand tot: ZZW 51 km
Gewijzigd: 28-01-2020 23:50
Grotendeels bewolkt  
Grotendeels bewolkt  
   Wind: WZW 20.4 km/h
Wind: WZW 20.4 km/h
Temperatuur: 3°C
Voelt als: -2°C
Dauwpunt: 1°C
Vochtigheid: 87%
Barometer: 1002 hPa
Bewolking: Mostly Cloudy
Zicht: meer dan 10 km
Bewolking: Grotendeels bewolkt 3000 ft
EBCI 282250Z 25011KT 9999 BKN030 03/01 Q1002 TEMPO 22015G25KT
EBLG - Bierset/Liege, Belgium
Afstand tot: OZO 60 km
Gewijzigd: 28-01-2020 23:50
Light Showers, Regen, Grotendeels bewolkt  
Light Showers, Regen, Grotendeels bewolkt  
   Wind: WZW 24.1 km/h
Wind: WZW 24.1 km/h
Temperatuur: 2°C
Voelt als: -3°C
Dauwpunt: 1°C
Vochtigheid: 93%
Barometer: 1001 hPa
Bewolking: Mostly Cloudy
Zicht: 8 km
Bewolking: Licht bewolkt 800 ft,
Gedeeltelijk bewolkt 1500 ft,
Grotendeels bewolkt 2100 ft
EBLG 282250Z 25013KT 8000 -SHRA FEW008 SCT015 BKN021 02/01 Q1001 NOSIG

Script ontwikkeld door  Saratoga-weather.org Aangepast voor de template door  Weerstation Leuven

U vindt ons ook hier:

Het Weer Aktueel

Weather Underground

AWEKAS